sensor_id;sensor_type;location;lat;lon;timestamp;pressure;altitude;pressure_sealevel;temperature;humidity
70304;BME280;57712;48.752;11.348;2022-07-06T00:02:01;97894.72;;;15.90;67.79
70304;BME280;57712;48.752;11.348;2022-07-06T00:04:28;97900.91;;;15.94;67.61
70304;BME280;57712;48.752;11.348;2022-07-06T00:06:55;97894.81;;;15.99;67.07
70304;BME280;57712;48.752;11.348;2022-07-06T00:09:21;97893.28;;;15.98;67.01
70304;BME280;57712;48.752;11.348;2022-07-06T00:11:48;97898.38;;;15.87;65.85
70304;BME280;57712;48.752;11.348;2022-07-06T00:14:14;97893.50;;;15.91;66.27
70304;BME280;57712;48.752;11.348;2022-07-06T00:16:41;97900.78;;;15.98;66.50
70304;BME280;57712;48.752;11.348;2022-07-06T00:19:07;97899.69;;;15.95;66.49
70304;BME280;57712;48.752;11.348;2022-07-06T00:21:34;97903.09;;;15.99;66.71
70304;BME280;57712;48.752;11.348;2022-07-06T00:24:00;97898.03;;;15.98;66.34
70304;BME280;57712;48.752;11.348;2022-07-06T00:26:27;97904.34;;;15.98;65.83
70304;BME280;57712;48.752;11.348;2022-07-06T00:28:56;97908.75;;;15.83;66.58
70304;BME280;57712;48.752;11.348;2022-07-06T00:31:22;97906.00;;;15.70;67.27
70304;BME280;57712;48.752;11.348;2022-07-06T00:33:49;97904.59;;;15.66;67.20
70304;BME280;57712;48.752;11.348;2022-07-06T00:36:16;97908.09;;;15.53;68.51
70304;BME280;57712;48.752;11.348;2022-07-06T00:38:42;97907.69;;;15.68;68.06
70304;BME280;57712;48.752;11.348;2022-07-06T00:41:09;97910.97;;;15.37;68.97
70304;BME280;57712;48.752;11.348;2022-07-06T00:43:53;97904.78;;;15.33;69.03
70304;BME280;57712;48.752;11.348;2022-07-06T00:46:32;97906.09;;;15.41;70.23
70304;BME280;57712;48.752;11.348;2022-07-06T00:48:59;97901.56;;;15.47;68.97
70304;BME280;57712;48.752;11.348;2022-07-06T00:51:30;97901.91;;;15.49;69.21
70304;BME280;57712;48.752;11.348;2022-07-06T00:54:03;97900.25;;;15.52;69.14
70304;BME280;57712;48.752;11.348;2022-07-06T00:56:31;97898.13;;;15.30;69.76
70304;BME280;57712;48.752;11.348;2022-07-06T00:59:01;97899.91;;;15.37;69.86
70304;BME280;57712;48.752;11.348;2022-07-06T01:01:28;97905.09;;;15.35;70.04
70304;BME280;57712;48.752;11.348;2022-07-06T01:03:55;97896.91;;;15.19;71.35
70304;BME280;57712;48.752;11.348;2022-07-06T01:06:22;97895.56;;;15.11;71.13
70304;BME280;57712;48.752;11.348;2022-07-06T01:08:49;97901.66;;;15.06;71.50
70304;BME280;57712;48.752;11.348;2022-07-06T01:11:16;97891.25;;;15.10;70.93
70304;BME280;57712;48.752;11.348;2022-07-06T01:13:44;97896.25;;;15.02;72.24
70304;BME280;57712;48.752;11.348;2022-07-06T01:16:11;97892.25;;;15.03;71.83
70304;BME280;57712;48.752;11.348;2022-07-06T01:18:38;97891.59;;;14.99;71.51
70304;BME280;57712;48.752;11.348;2022-07-06T01:21:09;97887.72;;;14.96;71.03
70304;BME280;57712;48.752;11.348;2022-07-06T01:23:54;97886.19;;;14.95;71.39
70304;BME280;57712;48.752;11.348;2022-07-06T01:26:21;97881.31;;;14.99;70.92
70304;BME280;57712;48.752;11.348;2022-07-06T01:28:50;97887.06;;;14.92;71.88
70304;BME280;57712;48.752;11.348;2022-07-06T01:31:19;97887.25;;;14.85;72.71
70304;BME280;57712;48.752;11.348;2022-07-06T01:33:48;97876.22;;;14.85;73.06
70304;BME280;57712;48.752;11.348;2022-07-06T01:36:15;97881.56;;;14.63;74.85
70304;BME280;57712;48.752;11.348;2022-07-06T01:38:50;97884.56;;;14.69;74.53
70304;BME280;57712;48.752;11.348;2022-07-06T01:41:17;97887.44;;;14.78;73.43
70304;BME280;57712;48.752;11.348;2022-07-06T01:43:44;97882.59;;;14.69;73.41
70304;BME280;57712;48.752;11.348;2022-07-06T01:46:12;97885.44;;;14.66;74.61
70304;BME280;57712;48.752;11.348;2022-07-06T01:48:39;97888.03;;;14.57;74.69
70304;BME280;57712;48.752;11.348;2022-07-06T01:51:06;97880.03;;;14.62;74.41
70304;BME280;57712;48.752;11.348;2022-07-06T01:53:33;97884.63;;;14.53;75.18
70304;BME280;57712;48.752;11.348;2022-07-06T01:55:59;97883.59;;;14.47;75.96
70304;BME280;57712;48.752;11.348;2022-07-06T01:58:26;97891.78;;;14.50;74.58
70304;BME280;57712;48.752;11.348;2022-07-06T02:00:52;97889.69;;;14.54;74.18
70304;BME280;57712;48.752;11.348;2022-07-06T02:03:19;97883.50;;;14.50;73.98
70304;BME280;57712;48.752;11.348;2022-07-06T02:05:49;97883.97;;;14.49;73.60
70304;BME280;57712;48.752;11.348;2022-07-06T02:08:15;97880.41;;;14.48;73.37
70304;BME280;57712;48.752;11.348;2022-07-06T02:10:42;97882.06;;;14.46;73.46
70304;BME280;57712;48.752;11.348;2022-07-06T02:13:08;97887.03;;;14.51;72.70
70304;BME280;57712;48.752;11.348;2022-07-06T02:15:35;97882.75;;;14.50;72.98
70304;BME280;57712;48.752;11.348;2022-07-06T02:18:02;97890.13;;;14.36;74.84
70304;BME280;57712;48.752;11.348;2022-07-06T02:20:28;97888.41;;;14.42;73.63
70304;BME280;57712;48.752;11.348;2022-07-06T02:22:55;97885.31;;;14.40;74.00
70304;BME280;57712;48.752;11.348;2022-07-06T02:25:21;97889.97;;;14.27;74.69
70304;BME280;57712;48.752;11.348;2022-07-06T02:27:48;97887.91;;;14.31;74.47
70304;BME280;57712;48.752;11.348;2022-07-06T02:30:14;97893.63;;;14.24;74.90
70304;BME280;57712;48.752;11.348;2022-07-06T02:32:42;97892.16;;;14.20;75.37
70304;BME280;57712;48.752;11.348;2022-07-06T02:35:08;97887.31;;;14.24;74.84
70304;BME280;57712;48.752;11.348;2022-07-06T02:37:35;97896.38;;;14.24;75.10
70304;BME280;57712;48.752;11.348;2022-07-06T02:40:02;97892.25;;;14.16;75.15
70304;BME280;57712;48.752;11.348;2022-07-06T02:42:28;97900.50;;;14.16;74.29
70304;BME280;57712;48.752;11.348;2022-07-06T02:44:55;97895.91;;;13.97;75.77
70304;BME280;57712;48.752;11.348;2022-07-06T02:47:22;97905.34;;;13.96;75.22
70304;BME280;57712;48.752;11.348;2022-07-06T02:49:48;97907.44;;;13.92;75.62
70304;BME280;57712;48.752;11.348;2022-07-06T02:52:15;97916.22;;;13.86;75.88
70304;BME280;57712;48.752;11.348;2022-07-06T02:54:41;97915.94;;;13.81;75.61
70304;BME280;57712;48.752;11.348;2022-07-06T02:57:08;97910.88;;;13.79;75.24
70304;BME280;57712;48.752;11.348;2022-07-06T02:59:34;97921.13;;;13.79;75.11
70304;BME280;57712;48.752;11.348;2022-07-06T03:02:04;97919.28;;;13.72;79.34
70304;BME280;57712;48.752;11.348;2022-07-06T03:04:31;97923.25;;;13.71;78.05
70304;BME280;57712;48.752;11.348;2022-07-06T03:06:57;97928.50;;;13.66;77.07
70304;BME280;57712;48.752;11.348;2022-07-06T03:09:24;97923.41;;;13.64;76.68
70304;BME280;57712;48.752;11.348;2022-07-06T03:11:51;97930.66;;;13.58;77.71
70304;BME280;57712;48.752;11.348;2022-07-06T03:14:17;97931.13;;;13.53;77.47
70304;BME280;57712;48.752;11.348;2022-07-06T03:16:44;97924.53;;;13.50;77.68
70304;BME280;57712;48.752;11.348;2022-07-06T03:19:16;97929.78;;;13.61;75.97
70304;BME280;57712;48.752;11.348;2022-07-06T03:21:43;97928.75;;;13.55;77.10
70304;BME280;57712;48.752;11.348;2022-07-06T03:24:09;97928.47;;;13.49;77.62
70304;BME280;57712;48.752;11.348;2022-07-06T03:26:36;97936.22;;;13.54;77.90
70304;BME280;57712;48.752;11.348;2022-07-06T03:29:02;97932.53;;;13.45;78.55
70304;BME280;57712;48.752;11.348;2022-07-06T03:31:29;97931.41;;;13.58;76.88
70304;BME280;57712;48.752;11.348;2022-07-06T03:33:56;97948.09;;;13.51;78.88
70304;BME280;57712;48.752;11.348;2022-07-06T03:36:22;97940.94;;;13.54;78.35
70304;BME280;57712;48.752;11.348;2022-07-06T03:38:49;97941.56;;;13.62;78.07
70304;BME280;57712;48.752;11.348;2022-07-06T03:41:15;97950.88;;;13.32;80.15
70304;BME280;57712;48.752;11.348;2022-07-06T03:43:42;97948.28;;;13.24;80.39
70304;BME280;57712;48.752;11.348;2022-07-06T03:46:08;97948.16;;;13.48;78.40
70304;BME280;57712;48.752;11.348;2022-07-06T03:48:35;97949.38;;;13.47;79.10
70304;BME280;57712;48.752;11.348;2022-07-06T03:51:04;97943.34;;;13.52;79.00
70304;BME280;57712;48.752;11.348;2022-07-06T03:53:32;97934.75;;;13.50;79.46
70304;BME280;57712;48.752;11.348;2022-07-06T03:55:59;97947.84;;;13.62;78.39
70304;BME280;57712;48.752;11.348;2022-07-06T03:58:44;97940.97;;;13.70;78.63
70304;BME280;57712;48.752;11.348;2022-07-06T04:01:10;97940.63;;;13.68;78.96
70304;BME280;57712;48.752;11.348;2022-07-06T04:03:37;97943.88;;;13.63;79.28
70304;BME280;57712;48.752;11.348;2022-07-06T04:06:03;97940.63;;;13.68;79.08
70304;BME280;57712;48.752;11.348;2022-07-06T04:08:30;97947.16;;;13.58;78.31
70304;BME280;57712;48.752;11.348;2022-07-06T04:10:56;97949.06;;;13.61;78.56
70304;BME280;57712;48.752;11.348;2022-07-06T04:13:23;97956.81;;;13.82;78.73
70304;BME280;57712;48.752;11.348;2022-07-06T04:15:51;97959.56;;;13.66;78.96
70304;BME280;57712;48.752;11.348;2022-07-06T04:18:18;97960.25;;;13.70;78.61
70304;BME280;57712;48.752;11.348;2022-07-06T04:20:45;97973.88;;;13.77;79.03
70304;BME280;57712;48.752;11.348;2022-07-06T04:23:11;97973.88;;;13.77;78.75
70304;BME280;57712;48.752;11.348;2022-07-06T04:25:38;97975.75;;;13.80;78.81
70304;BME280;57712;48.752;11.348;2022-07-06T04:28:04;97978.25;;;13.91;78.77
70304;BME280;57712;48.752;11.348;2022-07-06T04:30:31;97977.31;;;13.98;78.58
70304;BME280;57712;48.752;11.348;2022-07-06T04:32:57;97974.91;;;14.16;78.28
70304;BME280;57712;48.752;11.348;2022-07-06T04:35:24;97973.69;;;14.33;77.57
70304;BME280;57712;48.752;11.348;2022-07-06T04:37:50;97982.97;;;14.72;76.43
70304;BME280;57712;48.752;11.348;2022-07-06T04:40:17;97978.03;;;14.80;75.38
70304;BME280;57712;48.752;11.348;2022-07-06T04:42:44;97973.44;;;15.31;73.90
70304;BME280;57712;48.752;11.348;2022-07-06T04:45:11;97984.44;;;15.73;73.40
70304;BME280;57712;48.752;11.348;2022-07-06T04:47:38;97986.78;;;15.87;72.04
70304;BME280;57712;48.752;11.348;2022-07-06T04:50:05;97985.69;;;15.97;71.30
70304;BME280;57712;48.752;11.348;2022-07-06T04:52:32;97994.19;;;15.77;72.29
70304;BME280;57712;48.752;11.348;2022-07-06T04:54:59;98001.59;;;15.26;73.60
70304;BME280;57712;48.752;11.348;2022-07-06T04:57:25;97991.06;;;15.21;74.17
70304;BME280;57712;48.752;11.348;2022-07-06T04:59:52;97986.47;;;15.30;74.51
70304;BME280;57712;48.752;11.348;2022-07-06T05:02:19;97983.78;;;14.85;75.58
70304;BME280;57712;48.752;11.348;2022-07-06T05:04:45;97978.56;;;15.04;74.95
70304;BME280;57712;48.752;11.348;2022-07-06T05:07:12;97983.16;;;15.77;73.50
70304;BME280;57712;48.752;11.348;2022-07-06T05:09:39;97985.97;;;16.25;71.28
70304;BME280;57712;48.752;11.348;2022-07-06T05:12:05;97984.78;;;16.26;71.08
70304;BME280;57712;48.752;11.348;2022-07-06T05:14:32;98003.09;;;17.14;69.16
70304;BME280;57712;48.752;11.348;2022-07-06T05:16:59;97999.94;;;17.47;67.47
70304;BME280;57712;48.752;11.348;2022-07-06T05:19:25;98000.00;;;17.56;67.79
70304;BME280;57712;48.752;11.348;2022-07-06T05:21:52;98000.84;;;17.97;67.16
70304;BME280;57712;48.752;11.348;2022-07-06T05:24:18;98001.53;;;18.78;65.33
70304;BME280;57712;48.752;11.348;2022-07-06T05:26:45;97997.66;;;19.12;62.29
70304;BME280;57712;48.752;11.348;2022-07-06T05:29:12;98008.75;;;18.75;62.49
70304;BME280;57712;48.752;11.348;2022-07-06T05:31:38;98005.97;;;18.75;63.71
70304;BME280;57712;48.752;11.348;2022-07-06T05:34:05;98005.97;;;18.66;62.55
70304;BME280;57712;48.752;11.348;2022-07-06T05:36:31;98008.00;;;19.11;62.84
70304;BME280;57712;48.752;11.348;2022-07-06T05:38:58;98015.66;;;19.71;61.29
70304;BME280;57712;48.752;11.348;2022-07-06T05:41:24;98011.84;;;19.14;60.97
70304;BME280;57712;48.752;11.348;2022-07-06T05:43:56;98010.41;;;19.64;60.95
70304;BME280;57712;48.752;11.348;2022-07-06T05:46:23;98012.78;;;19.29;59.54
70304;BME280;57712;48.752;11.348;2022-07-06T05:48:49;98019.56;;;20.31;60.53
70304;BME280;57712;48.752;11.348;2022-07-06T05:51:35;98020.88;;;20.78;57.31
70304;BME280;57712;48.752;11.348;2022-07-06T05:54:01;98016.75;;;20.07;55.06
70304;BME280;57712;48.752;11.348;2022-07-06T05:56:29;98015.66;;;20.13;55.14
70304;BME280;57712;48.752;11.348;2022-07-06T05:58:56;98024.19;;;20.91;53.91
70304;BME280;57712;48.752;11.348;2022-07-06T06:01:22;98030.63;;;20.16;56.19
70304;BME280;57712;48.752;11.348;2022-07-06T06:03:49;98023.41;;;20.42;55.54
70304;BME280;57712;48.752;11.348;2022-07-06T06:06:16;98020.38;;;21.03;54.87
70304;BME280;57712;48.752;11.348;2022-07-06T06:08:42;98026.16;;;21.14;55.01
70304;BME280;57712;48.752;11.348;2022-07-06T06:11:09;98024.22;;;20.34;54.73
70304;BME280;57712;48.752;11.348;2022-07-06T06:13:37;98022.56;;;20.51;53.48
70304;BME280;57712;48.752;11.348;2022-07-06T06:16:04;98026.16;;;21.14;52.71
70304;BME280;57712;48.752;11.348;2022-07-06T06:18:30;98032.78;;;21.41;53.72
70304;BME280;57712;48.752;11.348;2022-07-06T06:21:04;98035.41;;;21.20;52.35
70304;BME280;57712;48.752;11.348;2022-07-06T06:23:31;98036.16;;;21.74;52.45
70304;BME280;57712;48.752;11.348;2022-07-06T06:25:57;98033.56;;;20.79;53.54
70304;BME280;57712;48.752;11.348;2022-07-06T06:28:27;98032.69;;;21.79;52.13
70304;BME280;57712;48.752;11.348;2022-07-06T06:30:53;98041.31;;;22.61;48.26
70304;BME280;57712;48.752;11.348;2022-07-06T06:33:20;98035.06;;;21.86;49.83
70304;BME280;57712;48.752;11.348;2022-07-06T06:35:49;98035.78;;;22.46;50.72
70304;BME280;57712;48.752;11.348;2022-07-06T06:38:17;98037.28;;;23.02;52.64
70304;BME280;57712;48.752;11.348;2022-07-06T06:40:44;98038.06;;;21.83;50.59
70304;BME280;57712;48.752;11.348;2022-07-06T06:43:11;98033.25;;;21.54;51.62
70304;BME280;57712;48.752;11.348;2022-07-06T06:45:38;98037.72;;;22.40;48.88
70304;BME280;57712;48.752;11.348;2022-07-06T06:48:04;98028.16;;;21.67;50.05
70304;BME280;57712;48.752;11.348;2022-07-06T06:50:31;98040.50;;;22.40;51.40
70304;BME280;57712;48.752;11.348;2022-07-06T06:52:58;98032.41;;;22.97;48.18
70304;BME280;57712;48.752;11.348;2022-07-06T06:55:25;98040.03;;;22.41;50.59
70304;BME280;57712;48.752;11.348;2022-07-06T06:57:52;98035.50;;;22.99;47.14
70304;BME280;57712;48.752;11.348;2022-07-06T07:00:18;98038.28;;;22.99;44.96
70304;BME280;57712;48.752;11.348;2022-07-06T07:02:48;98035.97;;;23.65;47.50
70304;BME280;57712;48.752;11.348;2022-07-06T07:05:14;98037.81;;;23.47;50.18
70304;BME280;57712;48.752;11.348;2022-07-06T07:07:41;98047.25;;;23.76;48.93
70304;BME280;57712;48.752;11.348;2022-07-06T07:10:07;98040.06;;;23.23;44.93
70304;BME280;57712;48.752;11.348;2022-07-06T07:12:34;98042.38;;;23.71;42.72
70304;BME280;57712;48.752;11.348;2022-07-06T07:15:01;98046.09;;;23.88;42.68
70304;BME280;57712;48.752;11.348;2022-07-06T07:17:27;98038.81;;;23.70;45.06
70304;BME280;57712;48.752;11.348;2022-07-06T07:19:56;98035.34;;;23.81;47.48
70304;BME280;57712;48.752;11.348;2022-07-06T07:22:23;98034.25;;;24.04;43.65
70304;BME280;57712;48.752;11.348;2022-07-06T07:24:50;98031.13;;;23.91;45.30
70304;BME280;57712;48.752;11.348;2022-07-06T07:27:17;98040.50;;;24.19;43.42
70304;BME280;57712;48.752;11.348;2022-07-06T07:29:43;98036.44;;;24.21;43.46
70304;BME280;57712;48.752;11.348;2022-07-06T07:32:10;98035.81;;;24.37;42.45
70304;BME280;57712;48.752;11.348;2022-07-06T07:34:37;98029.22;;;24.08;42.01
70304;BME280;57712;48.752;11.348;2022-07-06T07:37:03;98039.41;;;24.11;45.82
70304;BME280;57712;48.752;11.348;2022-07-06T07:39:30;98030.69;;;23.46;45.16
70304;BME280;57712;48.752;11.348;2022-07-06T07:41:56;98029.22;;;24.08;49.85
70304;BME280;57712;48.752;11.348;2022-07-06T07:44:23;98033.56;;;24.41;47.12
70304;BME280;57712;48.752;11.348;2022-07-06T07:46:51;98029.59;;;24.27;47.67
70304;BME280;57712;48.752;11.348;2022-07-06T07:49:19;98033.22;;;24.70;47.23
70304;BME280;57712;48.752;11.348;2022-07-06T07:51:48;98036.69;;;25.02;43.61
70304;BME280;57712;48.752;11.348;2022-07-06T07:54:15;98034.50;;;25.35;41.75
70304;BME280;57712;48.752;11.348;2022-07-06T07:56:41;98034.97;;;25.16;42.46
70304;BME280;57712;48.752;11.348;2022-07-06T07:59:08;98029.00;;;26.02;39.86
70304;BME280;57712;48.752;11.348;2022-07-06T08:01:35;98027.97;;;26.05;41.90
70304;BME280;57712;48.752;11.348;2022-07-06T08:04:02;98028.81;;;27.02;39.37
70304;BME280;57712;48.752;11.348;2022-07-06T08:06:29;98026.75;;;26.97;36.25
70304;BME280;57712;48.752;11.348;2022-07-06T08:08:55;98027.28;;;27.48;36.71
70304;BME280;57712;48.752;11.348;2022-07-06T08:11:22;98023.69;;;27.53;34.91
70304;BME280;57712;48.752;11.348;2022-07-06T08:13:48;98034.88;;;27.18;36.67
70304;BME280;57712;48.752;11.348;2022-07-06T08:16:15;98022.34;;;27.66;38.23
70304;BME280;57712;48.752;11.348;2022-07-06T08:18:42;98030.69;;;28.12;38.46
70304;BME280;57712;48.752;11.348;2022-07-06T08:21:08;98029.13;;;27.40;36.70
70304;BME280;57712;48.752;11.348;2022-07-06T08:23:55;98030.25;;;26.23;38.08
70304;BME280;57712;48.752;11.348;2022-07-06T08:26:22;98035.47;;;25.20;40.24
70304;BME280;57712;48.752;11.348;2022-07-06T08:28:49;98030.88;;;25.17;41.05
70304;BME280;57712;48.752;11.348;2022-07-06T08:31:17;98035.81;;;25.61;39.84
70304;BME280;57712;48.752;11.348;2022-07-06T08:34:03;98029.97;;;26.32;39.01
70304;BME280;57712;48.752;11.348;2022-07-06T08:36:30;98034.59;;;26.13;38.55
70304;BME280;57712;48.752;11.348;2022-07-06T08:38:57;98034.44;;;27.02;40.13
70304;BME280;57712;48.752;11.348;2022-07-06T08:41:25;98026.13;;;27.27;38.45
70304;BME280;57712;48.752;11.348;2022-07-06T08:43:53;98032.06;;;27.65;37.59
70304;BME280;57712;48.752;11.348;2022-07-06T08:46:20;98029.34;;;27.89;34.15
70304;BME280;57712;48.752;11.348;2022-07-06T08:48:49;98024.94;;;28.78;34.13
70304;BME280;57712;48.752;11.348;2022-07-06T08:51:16;98025.59;;;28.41;34.05
70304;BME280;57712;48.752;11.348;2022-07-06T08:53:44;98018.22;;;27.25;33.66
70304;BME280;57712;48.752;11.348;2022-07-06T08:56:11;98026.88;;;28.10;35.04
70304;BME280;57712;48.752;11.348;2022-07-06T08:58:38;98024.78;;;27.86;35.43
70304;BME280;57712;48.752;11.348;2022-07-06T09:01:11;98020.78;;;26.32;36.17
70304;BME280;57712;48.752;11.348;2022-07-06T09:03:40;98029.50;;;27.20;35.75
70304;BME280;57712;48.752;11.348;2022-07-06T09:06:07;98031.34;;;27.06;33.63
70304;BME280;57712;48.752;11.348;2022-07-06T09:08:34;98014.97;;;27.57;34.81
70304;BME280;57712;48.752;11.348;2022-07-06T09:11:04;98021.41;;;26.94;39.67
70304;BME280;57712;48.752;11.348;2022-07-06T09:13:31;98020.31;;;27.60;37.79
70304;BME280;57712;48.752;11.348;2022-07-06T09:16:09;98022.31;;;27.24;34.34
70304;BME280;57712;48.752;11.348;2022-07-06T09:18:56;98019.22;;;27.75;32.41
70304;BME280;57712;48.752;11.348;2022-07-06T09:21:31;98020.81;;;28.00;35.17
70304;BME280;57712;48.752;11.348;2022-07-06T09:24:01;98019.72;;;28.39;35.78
70304;BME280;57712;48.752;11.348;2022-07-06T09:26:29;98014.19;;;28.28;32.50
70304;BME280;57712;48.752;11.348;2022-07-06T09:28:57;98017.09;;;28.46;32.27
70304;BME280;57712;48.752;11.348;2022-07-06T09:31:23;98017.78;;;28.23;31.64
70304;BME280;57712;48.752;11.348;2022-07-06T09:33:58;98021.22;;;27.39;32.47
70304;BME280;57712;48.752;11.348;2022-07-06T09:36:46;98032.44;;;26.86;33.54
70304;BME280;57712;48.752;11.348;2022-07-06T09:39:27;98026.44;;;25.70;34.49
70304;BME280;57712;48.752;11.348;2022-07-06T09:41:59;98025.91;;;25.66;35.25
70304;BME280;57712;48.752;11.348;2022-07-06T09:44:30;98031.75;;;26.69;33.93
70304;BME280;57712;48.752;11.348;2022-07-06T09:46:59;98026.44;;;26.37;34.64
70304;BME280;57712;48.752;11.348;2022-07-06T09:49:27;98018.50;;;26.41;33.38
70304;BME280;57712;48.752;11.348;2022-07-06T09:51:58;98026.91;;;27.74;35.28
70304;BME280;57712;48.752;11.348;2022-07-06T09:54:26;98007.25;;;27.63;30.67
70304;BME280;57712;48.752;11.348;2022-07-06T09:56:54;98026.88;;;26.64;34.09
70304;BME280;57712;48.752;11.348;2022-07-06T09:59:25;98022.66;;;26.98;31.88
70304;BME280;57712;48.752;11.348;2022-07-06T10:01:57;98021.06;;;25.95;32.58
70304;BME280;57712;48.752;11.348;2022-07-06T10:04:25;98020.03;;;26.48;32.19
70304;BME280;57712;48.752;11.348;2022-07-06T10:06:53;98019.47;;;27.30;32.18
70304;BME280;57712;48.752;11.348;2022-07-06T10:09:21;98021.56;;;29.04;29.43
70304;BME280;57712;48.752;11.348;2022-07-06T10:11:56;98026.16;;;29.26;31.17
70304;BME280;57712;48.752;11.348;2022-07-06T10:14:28;98015.47;;;29.00;29.43
70304;BME280;57712;48.752;11.348;2022-07-06T10:17:04;98018.22;;;29.24;31.28
70304;BME280;57712;48.752;11.348;2022-07-06T10:19:32;98025.63;;;28.84;29.64
70304;BME280;57712;48.752;11.348;2022-07-06T10:22:01;98021.53;;;28.36;30.18
70304;BME280;57712;48.752;11.348;2022-07-06T10:24:29;98031.00;;;26.46;31.16
70304;BME280;57712;48.752;11.348;2022-07-06T10:26:56;98025.34;;;26.63;33.08
70304;BME280;57712;48.752;11.348;2022-07-06T10:29:24;98017.84;;;27.51;31.78
70304;BME280;57712;48.752;11.348;2022-07-06T10:31:51;98017.97;;;28.00;31.17
70304;BME280;57712;48.752;11.348;2022-07-06T10:34:19;98017.50;;;28.56;31.81
70304;BME280;57712;48.752;11.348;2022-07-06T10:36:51;98016.78;;;27.54;32.06
70304;BME280;57712;48.752;11.348;2022-07-06T10:39:35;98020.19;;;26.78;32.65
70304;BME280;57712;48.752;11.348;2022-07-06T10:42:50;98014.16;;;25.73;33.53
70304;BME280;57712;48.752;11.348;2022-07-06T10:50:39;98018.16;;;26.67;32.52
70304;BME280;57712;48.752;11.348;2022-07-06T10:53:36;98012.81;;;25.24;34.59
70304;BME280;57712;48.752;11.348;2022-07-06T10:56:06;98027.97;;;25.77;33.27
70304;BME280;57712;48.752;11.348;2022-07-06T10:59:01;98018.75;;;26.43;33.47
70304;BME280;57712;48.752;11.348;2022-07-06T11:01:27;98004.31;;;26.86;33.13
70304;BME280;57712;48.752;11.348;2022-07-06T11:06:25;98010.56;;;26.45;33.00
70304;BME280;57712;48.752;11.348;2022-07-06T11:11:38;98016.63;;;27.36;32.04
70304;BME280;57712;48.752;11.348;2022-07-06T11:14:11;98021.31;;;27.63;29.50
70304;BME280;57712;48.752;11.348;2022-07-06T11:19:21;98012.81;;;27.33;30.59
70304;BME280;57712;48.752;11.348;2022-07-06T11:21:52;98013.28;;;27.43;31.65
70304;BME280;57712;48.752;11.348;2022-07-06T11:24:23;98012.75;;;28.15;30.06
70304;BME280;57712;48.752;11.348;2022-07-06T11:26:51;98015.09;;;28.66;30.31
70304;BME280;57712;48.752;11.348;2022-07-06T11:29:21;98017.63;;;29.31;29.04
70304;BME280;57712;48.752;11.348;2022-07-06T11:31:50;98010.06;;;28.78;28.94
70304;BME280;57712;48.752;11.348;2022-07-06T11:34:23;98011.03;;;27.30;29.94
70304;BME280;57712;48.752;11.348;2022-07-06T11:37:02;98021.22;;;26.75;31.03
70304;BME280;57712;48.752;11.348;2022-07-06T11:39:30;98015.66;;;26.53;30.75
70304;BME280;57712;48.752;11.348;2022-07-06T11:41:57;98016.91;;;26.68;30.81
70304;BME280;57712;48.752;11.348;2022-07-06T11:44:24;98013.66;;;26.14;32.47
70304;BME280;57712;48.752;11.348;2022-07-06T11:46:51;98019.78;;;26.29;31.82
70304;BME280;57712;48.752;11.348;2022-07-06T11:49:18;98001.66;;;26.30;31.74
70304;BME280;57712;48.752;11.348;2022-07-06T11:51:45;98013.16;;;25.93;31.99
70304;BME280;57712;48.752;11.348;2022-07-06T11:54:20;98010.56;;;26.34;31.60
70304;BME280;57712;48.752;11.348;2022-07-06T11:56:55;97999.06;;;27.65;32.27
70304;BME280;57712;48.752;11.348;2022-07-06T11:59:23;98001.72;;;26.99;30.80
70304;BME280;57712;48.752;11.348;2022-07-06T12:02:10;97998.78;;;27.69;31.46
70304;BME280;57712;48.752;11.348;2022-07-06T12:04:40;98001.59;;;27.69;29.14
70304;BME280;57712;48.752;11.348;2022-07-06T12:07:11;97995.53;;;27.53;28.78
70304;BME280;57712;48.752;11.348;2022-07-06T12:09:41;98001.69;;;27.05;29.84
70304;BME280;57712;48.752;11.348;2022-07-06T12:12:09;97999.13;;;26.04;32.41
70304;BME280;57712;48.752;11.348;2022-07-06T12:14:38;97992.22;;;26.28;34.06
70304;BME280;57712;48.752;11.348;2022-07-06T12:17:12;97986.50;;;26.67;34.81
70304;BME280;57712;48.752;11.348;2022-07-06T12:19:40;97991.66;;;26.35;33.78
70304;BME280;57712;48.752;11.348;2022-07-06T12:22:09;97987.06;;;27.18;31.25
70304;BME280;57712;48.752;11.348;2022-07-06T12:24:36;97975.97;;;28.02;30.01
70304;BME280;57712;48.752;11.348;2022-07-06T12:27:15;97975.47;;;28.53;31.99
70304;BME280;57712;48.752;11.348;2022-07-06T12:29:47;97973.47;;;28.72;29.07
70304;BME280;57712;48.752;11.348;2022-07-06T12:32:18;97982.50;;;29.27;29.29
70304;BME280;57712;48.752;11.348;2022-07-06T12:34:45;97977.00;;;29.72;29.80
70304;BME280;57712;48.752;11.348;2022-07-06T12:37:13;97976.78;;;27.61;29.39
70304;BME280;57712;48.752;11.348;2022-07-06T12:39:45;97978.66;;;26.43;31.18
70304;BME280;57712;48.752;11.348;2022-07-06T12:42:15;97981.78;;;25.72;32.26
70304;BME280;57712;48.752;11.348;2022-07-06T12:44:47;97975.59;;;26.30;33.68
70304;BME280;57712;48.752;11.348;2022-07-06T12:47:24;97978.94;;;25.95;32.49
70304;BME280;57712;48.752;11.348;2022-07-06T12:50:08;97972.56;;;25.66;32.72
70304;BME280;57712;48.752;11.348;2022-07-06T12:52:36;97962.72;;;27.26;30.39
70304;BME280;57712;48.752;11.348;2022-07-06T12:55:04;97959.88;;;27.67;29.32
70304;BME280;57712;48.752;11.348;2022-07-06T13:00:11;97960.72;;;27.56;30.45
70304;BME280;57712;48.752;11.348;2022-07-06T13:02:37;97962.16;;;27.74;31.41
70304;BME280;57712;48.752;11.348;2022-07-06T13:05:26;97952.84;;;28.09;30.37
70304;BME280;57712;48.752;11.348;2022-07-06T13:07:57;97960.13;;;27.99;29.59
70304;BME280;57712;48.752;11.348;2022-07-06T13:10:24;97958.34;;;27.30;29.89
70304;BME280;57712;48.752;11.348;2022-07-06T13:12:51;97958.66;;;27.57;30.89
70304;BME280;57712;48.752;11.348;2022-07-06T13:15:18;97959.13;;;27.61;29.98